createdAt,value
2023-04-06T00:02:29.653Z,98792.08
2023-04-06T00:05:01.939Z,98798.83
2023-04-06T00:07:35.149Z,98797.46
2023-04-06T00:10:08.649Z,98790.41
2023-04-06T00:12:40.758Z,98791.98
2023-04-06T00:15:14.106Z,98789.38
2023-04-06T00:17:46.222Z,98785.52
2023-04-06T00:20:21.410Z,98788.02
2023-04-06T00:22:53.449Z,98782.02
2023-04-06T00:25:25.653Z,98778.61
2023-04-06T00:28:00.788Z,98778.05
2023-04-06T00:30:32.928Z,98770.08
2023-04-06T00:33:06.399Z,98765.87
2023-04-06T00:35:39.937Z,98768.00
2023-04-06T00:38:16.587Z,98771.68
2023-04-06T00:40:48.685Z,98772.62
2023-04-06T00:43:20.790Z,98773.67
2023-04-06T00:45:52.949Z,98771.41
2023-04-06T00:48:25.149Z,98774.84
2023-04-06T00:50:57.240Z,98771.20
2023-04-06T00:53:29.479Z,98770.86
2023-04-06T00:56:03.104Z,98771.27
2023-04-06T00:58:40.108Z,98768.89
2023-04-06T01:01:13.261Z,98769.64
2023-04-06T01:03:49.691Z,98773.13
2023-04-06T01:06:22.020Z,98769.69
2023-04-06T01:09:01.743Z,98768.17
2023-04-06T01:11:37.646Z,98762.58
2023-04-06T01:14:11.222Z,98757.73
2023-04-06T01:17:02.456Z,98754.52
2023-04-06T01:19:38.348Z,98756.80
2023-04-06T01:22:10.891Z,98758.39
2023-04-06T01:25:03.272Z,98760.62
2023-04-06T01:27:58.527Z,98757.58
2023-04-06T01:30:47.536Z,98756.43
2023-04-06T01:33:31.721Z,98751.31
2023-04-06T01:36:10.544Z,98755.14
2023-04-06T01:38:43.489Z,98754.79
2023-04-06T01:41:16.162Z,98755.34
2023-04-06T01:43:56.969Z,98756.40
2023-04-06T01:46:34.982Z,98755.23
2023-04-06T01:49:09.133Z,98751.91
2023-04-06T01:51:43.535Z,98753.25
2023-04-06T01:54:17.784Z,98750.66
2023-04-06T01:57:01.311Z,98751.01
2023-04-06T01:59:37.077Z,98747.20
2023-04-06T02:02:14.145Z,98744.28
2023-04-06T02:04:47.453Z,98740.64
2023-04-06T02:07:19.700Z,98737.70
2023-04-06T02:09:53.164Z,98737.62
2023-04-06T02:12:29.526Z,98732.45
2023-04-06T02:15:01.922Z,98734.09
2023-04-06T02:17:35.516Z,98736.03
2023-04-06T02:20:09.117Z,98737.76
2023-04-06T02:22:41.268Z,98733.21
2023-04-06T02:25:16.588Z,98734.77
2023-04-06T02:27:48.700Z,98737.35
2023-04-06T02:30:21.011Z,98734.76
2023-04-06T02:32:54.189Z,98731.02
2023-04-06T02:35:27.964Z,98726.90
2023-04-06T02:38:00.904Z,98729.99
2023-04-06T02:40:33.067Z,98728.85
2023-04-06T02:43:09.809Z,98732.21
2023-04-06T02:45:42.001Z,98734.42
2023-04-06T02:48:15.057Z,98735.52
2023-04-06T02:50:47.388Z,98735.40
2023-04-06T02:53:19.604Z,98736.30
2023-04-06T02:55:51.734Z,98737.70
2023-04-06T02:58:23.853Z,98734.09
2023-04-06T03:00:58.754Z,98732.71
2023-04-06T03:03:31.321Z,98729.80
2023-04-06T03:06:04.235Z,98725.48
2023-04-06T03:08:36.846Z,98728.81
2023-04-06T03:11:12.005Z,98729.84
2023-04-06T03:13:47.334Z,98726.05
2023-04-06T03:16:19.656Z,98723.12
2023-04-06T03:18:51.811Z,98725.23
2023-04-06T03:21:24.691Z,98733.58
2023-04-06T03:23:57.871Z,98736.05
2023-04-06T03:26:29.935Z,98737.14
2023-04-06T03:29:03.350Z,98738.90
2023-04-06T03:31:38.539Z,98738.73
2023-04-06T03:34:13.828Z,98737.02
2023-04-06T03:36:48.347Z,98731.18
2023-04-06T03:39:23.925Z,98733.29
2023-04-06T03:41:56.749Z,98737.11
2023-04-06T03:44:35.676Z,98735.63
2023-04-06T03:50:22.420Z,98741.15
2023-04-06T03:52:54.502Z,98737.89
2023-04-06T03:55:26.920Z,98739.46
2023-04-06T03:57:59.219Z,98740.08
2023-04-06T04:00:35.020Z,98739.35
2023-04-06T04:03:07.358Z,98742.93
2023-04-06T04:05:42.962Z,98740.89
2023-04-06T04:08:15.715Z,98739.34
2023-04-06T04:10:47.913Z,98740.53
2023-04-06T04:13:20.038Z,98742.27
2023-04-06T04:15:54.088Z,98744.20
2023-04-06T04:18:26.269Z,98744.67
2023-04-06T04:20:59.660Z,98744.54
2023-04-06T04:23:33.246Z,98749.07
2023-04-06T04:26:05.983Z,98751.66
2023-04-06T04:28:38.194Z,98751.33
2023-04-06T04:31:10.445Z,98758.38
2023-04-06T04:33:42.691Z,98757.79
2023-04-06T04:36:19.096Z,98760.12
2023-04-06T04:38:53.517Z,98755.71
2023-04-06T04:41:26.366Z,98752.06
2023-04-06T04:44:04.460Z,98749.23
2023-04-06T04:46:36.738Z,98746.39
2023-04-06T04:49:10.247Z,98743.23
2023-04-06T04:51:42.876Z,98745.84
2023-04-06T04:54:30.512Z,98753.46
2023-04-06T04:57:03.453Z,98757.51
2023-04-06T04:59:55.418Z,98756.70
2023-04-06T05:02:28.868Z,98757.95
2023-04-06T05:05:17.808Z,98759.73
2023-04-06T05:07:50.156Z,98761.05
2023-04-06T05:10:43.977Z,98751.77
2023-04-06T05:13:16.551Z,98751.70
2023-04-06T05:15:50.293Z,98746.92
2023-04-06T05:18:28.546Z,98741.20
2023-04-06T05:21:01.203Z,98743.90
2023-04-06T05:23:41.533Z,98744.09
2023-04-06T05:26:14.072Z,98747.63
2023-04-06T05:28:46.992Z,98748.73
2023-04-06T05:31:19.647Z,98742.55
2023-04-06T05:33:54.523Z,98743.83
2023-04-06T05:36:36.182Z,98738.88
2023-04-06T05:39:13.512Z,98736.70
2023-04-06T05:41:56.208Z,98735.00
2023-04-06T05:44:39.885Z,98733.20
2023-04-06T05:47:17.067Z,98734.29
2023-04-06T05:49:50.614Z,98730.20
2023-04-06T05:52:29.168Z,98732.90
2023-04-06T05:55:02.842Z,98730.42
2023-04-06T05:57:36.278Z,98732.26
2023-04-06T06:00:11.757Z,98731.98
2023-04-06T06:02:47.180Z,98726.38
2023-04-06T06:05:23.211Z,98724.41
2023-04-06T06:07:56.047Z,98717.11
2023-04-06T06:10:28.367Z,98716.57
2023-04-06T06:13:00.985Z,98717.61
2023-04-06T06:15:33.284Z,98712.51
2023-04-06T06:18:05.698Z,98713.19
2023-04-06T06:20:38.693Z,98707.96
2023-04-06T06:23:11.353Z,98707.60
2023-04-06T06:25:43.517Z,98703.96
2023-04-06T06:28:16.271Z,98704.85
2023-04-06T06:30:48.568Z,98704.52
2023-04-06T06:33:23.898Z,98699.59
2023-04-06T06:35:57.254Z,98703.23
2023-04-06T06:38:29.603Z,98698.95
2023-04-06T06:41:01.852Z,98700.79
2023-04-06T06:43:35.954Z,98694.80
2023-04-06T06:46:12.774Z,98692.98
2023-04-06T06:48:45.834Z,98692.11
2023-04-06T06:51:18.363Z,98692.59
2023-04-06T06:53:51.913Z,98690.41
2023-04-06T06:56:24.086Z,98682.60
2023-04-06T06:58:56.924Z,98681.86
2023-04-06T07:01:29.210Z,98683.80
2023-04-06T07:04:04.461Z,98684.29
2023-04-06T07:06:38.176Z,98688.34
2023-04-06T07:09:13.669Z,98691.88
2023-04-06T07:11:46.065Z,98691.02
2023-04-06T07:14:18.401Z,98692.04
2023-04-06T07:16:52.160Z,98687.91
2023-04-06T07:19:24.296Z,98685.60
2023-04-06T07:21:57.349Z,98677.29
2023-04-06T07:24:29.571Z,98667.00
2023-04-06T07:27:02.906Z,98660.63
2023-04-06T07:29:35.337Z,98657.26
2023-04-06T07:32:07.653Z,98657.28
2023-04-06T07:34:40.399Z,98655.65
2023-04-06T07:37:13.335Z,98648.92
2023-04-06T07:39:47.994Z,98650.44
2023-04-06T07:42:20.153Z,98647.89
2023-04-06T07:44:53.315Z,98655.02
2023-04-06T07:47:27.136Z,98659.76
2023-04-06T07:53:23.681Z,98653.65
2023-04-06T07:55:56.810Z,98657.73
2023-04-06T07:58:28.902Z,98657.02
2023-04-06T08:01:01.012Z,98647.08
2023-04-06T08:03:35.826Z,98646.39
2023-04-06T08:06:08.620Z,98638.63
2023-04-06T08:08:40.750Z,98633.34
2023-04-06T08:11:13.408Z,98625.29
2023-04-06T08:13:45.816Z,98623.02
2023-04-06T08:16:18.033Z,98619.66
2023-04-06T08:18:50.573Z,98611.43
2023-04-06T08:21:23.057Z,98605.16
2023-04-06T08:23:55.275Z,98603.26
2023-04-06T08:26:30.722Z,98607.03
2023-04-06T08:29:05.092Z,98604.43
2023-04-06T08:31:37.796Z,98601.27
2023-04-06T08:34:12.215Z,98590.75
2023-04-06T08:36:47.898Z,98579.68
2023-04-06T08:39:25.079Z,98570.91
2023-04-06T08:42:00.779Z,98551.23
2023-04-06T08:44:34.166Z,98549.17
2023-04-06T08:47:08.927Z,98547.70
2023-04-06T08:49:41.516Z,98549.95
2023-04-06T08:52:14.037Z,98540.56
2023-04-06T08:54:46.114Z,98534.64
2023-04-06T08:57:20.284Z,98523.70
2023-04-06T08:59:53.536Z,98517.15
2023-04-06T09:02:26.799Z,98515.82
2023-04-06T09:05:02.283Z,98511.27
2023-04-06T09:07:34.854Z,98503.88
2023-04-06T09:10:08.158Z,98493.44
2023-04-06T09:12:40.364Z,98486.16
2023-04-06T09:15:24.606Z,98480.91
2023-04-06T09:17:57.222Z,98463.48
2023-04-06T09:20:30.495Z,98480.89
2023-04-06T09:23:03.361Z,98477.66
2023-04-06T09:25:35.567Z,98461.48
2023-04-06T09:28:09.039Z,98456.99
2023-04-06T09:30:51.654Z,98444.98
2023-04-06T09:33:27.339Z,98429.11
2023-04-06T09:35:59.516Z,98424.60
2023-04-06T09:38:31.771Z,98418.38
2023-04-06T09:41:03.853Z,98417.80
2023-04-06T09:43:36.093Z,98408.73
2023-04-06T09:46:09.859Z,98400.33
2023-04-06T09:48:42.150Z,98390.27
2023-04-06T09:51:17.549Z,98384.48
2023-04-06T09:53:55.136Z,98382.95
2023-04-06T09:56:30.050Z,98368.04
2023-04-06T09:59:11.446Z,98352.92
2023-04-06T10:01:44.135Z,98356.95
2023-04-06T10:04:29.796Z,98367.88
2023-04-06T10:07:04.454Z,98369.92
2023-04-06T10:09:37.760Z,98358.13
2023-04-06T10:12:11.432Z,98355.16
2023-04-06T10:14:45.158Z,98364.56
2023-04-06T10:17:17.552Z,98366.05
2023-04-06T10:19:55.674Z,98362.54
2023-04-06T10:22:34.753Z,98348.11
2023-04-06T10:25:07.862Z,98328.66
2023-04-06T10:27:40.031Z,98322.68
2023-04-06T10:30:12.831Z,98334.17
2023-04-06T10:35:19.569Z,98329.75
2023-04-06T10:37:54.129Z,98324.21
2023-04-06T10:40:28.207Z,98326.80
2023-04-06T10:43:15.068Z,98317.80
2023-04-06T10:45:56.906Z,98305.98
2023-04-06T10:48:41.232Z,98307.73
2023-04-06T10:51:14.610Z,98307.84
2023-04-06T10:53:49.399Z,98312.17
2023-04-06T10:56:29.034Z,98309.96
2023-04-06T10:59:01.687Z,98314.05
2023-04-06T11:01:33.828Z,98317.39
2023-04-06T11:04:06.232Z,98311.27
2023-04-06T11:06:38.616Z,98313.77
2023-04-06T11:09:11.112Z,98310.83
2023-04-06T11:11:43.667Z,98303.45
2023-04-06T11:14:15.936Z,98299.55
2023-04-06T11:16:51.013Z,98299.56
2023-04-06T11:19:23.514Z,98307.42
2023-04-06T11:21:56.947Z,98304.31
2023-04-06T11:24:31.143Z,98304.04
2023-04-06T11:27:03.145Z,98305.27
2023-04-06T11:29:37.801Z,98307.58
2023-04-06T11:32:09.891Z,98314.04
2023-04-06T11:34:42.917Z,98308.67
2023-04-06T11:37:16.058Z,98303.98
2023-04-06T11:39:51.998Z,98303.83
2023-04-06T11:42:28.806Z,98306.63
2023-04-06T11:45:03.990Z,98307.13
2023-04-06T11:47:37.491Z,98309.15
2023-04-06T11:50:15.908Z,98302.91
2023-04-06T11:52:48.031Z,98307.22
2023-04-06T11:55:22.506Z,98305.77
2023-04-06T11:57:54.749Z,98307.94
2023-04-06T12:00:27.010Z,98303.33
2023-04-06T12:03:00.361Z,98307.83
2023-04-06T12:05:33.158Z,98307.07
2023-04-06T12:08:05.303Z,98311.89
2023-04-06T12:10:37.420Z,98310.02
2023-04-06T12:13:09.579Z,98305.16
2023-04-06T12:15:41.845Z,98311.73
2023-04-06T12:18:17.008Z,98310.26
2023-04-06T12:20:49.512Z,98316.34
2023-04-06T12:23:22.780Z,98313.39
2023-04-06T12:25:55.830Z,98318.04
2023-04-06T12:28:28.067Z,98326.30
2023-04-06T12:31:00.236Z,98320.45
2023-04-06T12:33:32.320Z,98325.98
2023-04-06T12:36:04.831Z,98323.38
2023-04-06T12:38:39.239Z,98328.37
2023-04-06T12:41:11.649Z,98331.56
2023-04-06T12:43:44.968Z,98335.83
2023-04-06T12:46:17.168Z,98336.05
2023-04-06T12:48:49.662Z,98341.61
2023-04-06T12:51:21.825Z,98348.98
2023-04-06T12:53:54.145Z,98355.09
2023-04-06T12:56:27.194Z,98360.88
2023-04-06T12:58:59.417Z,98362.40
2023-04-06T13:01:31.838Z,98367.89
2023-04-06T13:04:04.037Z,98371.20
2023-04-06T13:06:36.227Z,98377.59
2023-04-06T13:09:08.870Z,98383.55
2023-04-06T13:11:42.486Z,98397.02
2023-04-06T13:14:15.222Z,98405.42
2023-04-06T13:16:47.721Z,98405.95
2023-04-06T13:19:20.896Z,98407.38
2023-04-06T13:21:52.986Z,98412.54
2023-04-06T13:24:25.451Z,98414.70
2023-04-06T13:26:58.177Z,98418.98
2023-04-06T13:29:30.580Z,98424.60
2023-04-06T13:32:02.782Z,98427.17
2023-04-06T13:34:35.052Z,98431.34
2023-04-06T13:37:07.184Z,98436.23
2023-04-06T13:39:39.263Z,98448.33
2023-04-06T13:42:11.457Z,98439.90
2023-04-06T13:44:43.650Z,98450.49
2023-04-06T13:47:32.203Z,98446.60
2023-04-06T13:50:06.766Z,98445.54
2023-04-06T13:52:38.890Z,98448.13
2023-04-06T13:55:11.618Z,98450.66
2023-04-06T13:57:43.698Z,98449.84
2023-04-06T14:00:22.949Z,98459.13
2023-04-06T14:03:00.275Z,98456.95
2023-04-06T14:05:35.919Z,98459.33
2023-04-06T14:08:07.980Z,98459.80
2023-04-06T14:10:43.361Z,98460.69
2023-04-06T14:13:16.551Z,98465.67
2023-04-06T14:15:48.499Z,98458.34
2023-04-06T14:18:20.452Z,98463.63
2023-04-06T14:21:01.541Z,98475.27
2023-04-06T14:23:34.030Z,98473.55
2023-04-06T14:26:07.413Z,98471.69
2023-04-06T14:28:40.089Z,98469.79
2023-04-06T14:31:16.226Z,98466.72
2023-04-06T14:33:48.677Z,98465.63
2023-04-06T14:36:20.663Z,98472.95
2023-04-06T14:38:53.358Z,98474.25
2023-04-06T14:41:27.036Z,98474.81
2023-04-06T14:44:00.222Z,98475.52
2023-04-06T14:46:32.720Z,98475.23
2023-04-06T14:49:04.760Z,98474.41
2023-04-06T14:51:37.563Z,98475.55
2023-04-06T14:54:09.698Z,98478.42
2023-04-06T14:56:41.751Z,98480.99
2023-04-06T14:59:13.741Z,98481.83
2023-04-06T15:01:45.942Z,98483.23
2023-04-06T15:04:18.553Z,98478.91
2023-04-06T15:06:50.549Z,98478.69
2023-04-06T15:09:22.690Z,98479.81
2023-04-06T15:11:54.685Z,98479.88
2023-04-06T15:14:26.620Z,98487.59
2023-04-06T15:16:58.661Z,98488.39
2023-04-06T15:19:30.628Z,98482.77
2023-04-06T15:22:02.678Z,98488.34
2023-04-06T15:24:34.717Z,98489.63
2023-04-06T15:27:07.635Z,98481.69
2023-04-06T15:29:39.659Z,98481.45
2023-04-06T15:32:11.678Z,98481.09
2023-04-06T15:34:45.427Z,98478.90
2023-04-06T15:37:17.284Z,98478.66
2023-04-06T15:39:50.326Z,98481.54
2023-04-06T15:42:22.236Z,98481.80
2023-04-06T15:44:54.182Z,98478.05
2023-04-06T15:47:26.601Z,98474.06
2023-04-06T15:49:58.916Z,98473.48
2023-04-06T15:52:31.085Z,98474.17
2023-04-06T15:55:04.256Z,98472.08
2023-04-06T15:57:40.170Z,98471.48
2023-04-06T16:00:14.467Z,98473.09
2023-04-06T16:02:46.570Z,98482.23
2023-04-06T16:05:19.160Z,98475.00
2023-04-06T16:07:54.478Z,98477.38
2023-04-06T16:10:26.506Z,98482.42
2023-04-06T16:12:58.796Z,98480.84
2023-04-06T16:15:30.776Z,98481.63
2023-04-06T16:18:04.250Z,98480.09
2023-04-06T16:20:37.910Z,98478.86
2023-04-06T16:23:10.064Z,98480.05
2023-04-06T16:25:42.213Z,98481.46
2023-04-06T16:28:14.288Z,98480.96
2023-04-06T16:30:49.676Z,98481.21
2023-04-06T16:33:23.227Z,98478.98
2023-04-06T16:35:55.584Z,98484.88
2023-04-06T16:38:34.132Z,98481.16
2023-04-06T16:41:06.222Z,98482.58
2023-04-06T16:43:38.217Z,98484.11
2023-04-06T16:46:10.479Z,98490.66
2023-04-06T16:48:42.571Z,98488.63
2023-04-06T16:51:14.616Z,98489.52
2023-04-06T16:53:48.158Z,98490.52
2023-04-06T16:56:20.844Z,98495.67
2023-04-06T16:58:53.437Z,98494.58
2023-04-06T17:01:29.311Z,98494.33
2023-04-06T17:04:02.146Z,98495.60
2023-04-06T17:06:34.267Z,98497.69
2023-04-06T17:09:06.480Z,98494.54
2023-04-06T17:11:46.709Z,98494.85
2023-04-06T17:14:19.299Z,98496.40
2023-04-06T17:16:51.420Z,98492.06
2023-04-06T17:19:23.484Z,98495.35
2023-04-06T17:21:55.607Z,98495.85
2023-04-06T17:24:28.466Z,98497.50
2023-04-06T17:27:00.647Z,98500.14
2023-04-06T17:29:37.752Z,98501.03
2023-04-06T17:32:10.573Z,98501.90
2023-04-06T17:34:45.515Z,98500.84
2023-04-06T17:37:18.149Z,98501.45
2023-04-06T17:39:50.259Z,98504.58
2023-04-06T17:44:55.452Z,98504.38
2023-04-06T17:47:32.365Z,98505.45
2023-04-06T17:50:05.066Z,98503.56
2023-04-06T17:52:37.485Z,98509.39
2023-04-06T17:55:10.808Z,98507.63
2023-04-06T17:57:43.440Z,98504.20
2023-04-06T18:00:24.229Z,98507.20
2023-04-06T18:03:03.733Z,98507.69
2023-04-06T18:05:39.726Z,98505.50
2023-04-06T18:08:12.847Z,98503.05
2023-04-06T18:10:49.393Z,98505.38
2023-04-06T18:13:22.333Z,98503.34
2023-04-06T18:15:54.611Z,98503.42
2023-04-06T18:18:27.115Z,98503.71
2023-04-06T18:20:59.508Z,98503.19
2023-04-06T18:23:31.891Z,98506.50
2023-04-06T18:26:04.218Z,98500.54
2023-04-06T18:28:36.727Z,98497.73
2023-04-06T18:31:09.551Z,98498.07
2023-04-06T18:33:41.784Z,98493.52
2023-04-06T18:36:14.734Z,98491.94
2023-04-06T18:38:51.005Z,98490.55
2023-04-06T18:41:23.361Z,98488.48
2023-04-06T18:43:56.229Z,98484.46
2023-04-06T18:46:28.781Z,98485.39
2023-04-06T18:49:01.032Z,98486.33
2023-04-06T18:51:33.260Z,98486.09
2023-04-06T18:54:05.403Z,98484.66
2023-04-06T18:56:38.991Z,98489.30
2023-04-06T18:59:12.171Z,98480.54
2023-04-06T19:01:46.834Z,98478.67
2023-04-06T19:04:19.781Z,98471.05
2023-04-06T19:06:53.075Z,98472.04
2023-04-06T19:09:28.412Z,98472.09
2023-04-06T19:12:00.421Z,98469.89
2023-04-06T19:14:34.694Z,98466.31
2023-04-06T19:17:07.156Z,98464.84
2023-04-06T19:19:39.311Z,98463.98
2023-04-06T19:22:13.079Z,98461.49
2023-04-06T19:24:45.892Z,98465.08
2023-04-06T19:27:23.423Z,98460.29
2023-04-06T19:29:55.940Z,98455.61
2023-04-06T19:32:28.291Z,98452.67
2023-04-06T19:35:02.861Z,98454.43
2023-04-06T19:37:35.264Z,98454.73
2023-04-06T19:40:10.834Z,98453.58
2023-04-06T19:42:43.225Z,98447.05
2023-04-06T19:45:15.307Z,98447.85
2023-04-06T19:47:47.627Z,98449.77
2023-04-06T19:50:19.860Z,98453.55
2023-04-06T19:52:53.374Z,98453.62
2023-04-06T19:55:25.562Z,98453.10
2023-04-06T19:57:57.741Z,98453.52
2023-04-06T20:00:30.022Z,98447.48
2023-04-06T20:03:02.287Z,98443.89
2023-04-06T20:05:34.477Z,98438.81
2023-04-06T20:08:06.817Z,98439.00
2023-04-06T20:11:03.024Z,98436.95
2023-04-06T20:13:35.825Z,98437.33
2023-04-06T20:16:10.145Z,98432.78
2023-04-06T20:18:42.281Z,98437.95
2023-04-06T20:21:14.590Z,98436.58
2023-04-06T20:23:47.246Z,98436.09
2023-04-06T20:26:19.534Z,98431.17
2023-04-06T20:28:51.629Z,98429.27
2023-04-06T20:31:26.628Z,98424.69
2023-04-06T20:33:58.763Z,98425.69
2023-04-06T20:36:34.024Z,98424.58
2023-04-06T20:39:06.565Z,98423.21
2023-04-06T20:41:38.906Z,98419.08
2023-04-06T20:44:11.136Z,98417.46
2023-04-06T20:46:45.872Z,98414.71
2023-04-06T20:49:18.537Z,98415.23
2023-04-06T20:51:51.530Z,98413.62
2023-04-06T20:54:23.669Z,98413.34
2023-04-06T20:56:59.197Z,98411.30
2023-04-06T20:59:31.286Z,98406.25
2023-04-06T21:02:03.442Z,98406.83
2023-04-06T21:04:36.719Z,98401.73
2023-04-06T21:07:09.742Z,98402.70
2023-04-06T21:09:42.800Z,98401.38
2023-04-06T21:12:14.891Z,98401.29
2023-04-06T21:14:47.051Z,98398.58
2023-04-06T21:17:19.105Z,98397.89
2023-04-06T21:19:51.344Z,98398.41
2023-04-06T21:22:23.960Z,98398.45
2023-04-06T21:24:56.093Z,98393.07
2023-04-06T21:27:28.318Z,98394.45
2023-04-06T21:30:00.402Z,98391.00
2023-04-06T21:32:32.496Z,98391.88
2023-04-06T21:35:05.034Z,98386.08
2023-04-06T21:37:37.146Z,98381.76
2023-04-06T21:40:11.308Z,98384.09
2023-04-06T21:42:43.359Z,98383.40
2023-04-06T21:45:15.546Z,98383.27
2023-04-06T21:47:49.624Z,98382.16
2023-04-06T21:50:22.370Z,98383.43
2023-04-06T21:52:54.461Z,98380.35
2023-04-06T21:55:26.482Z,98378.21
2023-04-06T21:57:58.569Z,98373.79
2023-04-06T22:00:31.435Z,98368.70
2023-04-06T22:03:03.506Z,98365.80
2023-04-06T22:05:37.074Z,98365.23
2023-04-06T22:08:15.174Z,98362.77
2023-04-06T22:10:50.242Z,98360.46
2023-04-06T22:13:22.612Z,98367.94
2023-04-06T22:15:54.693Z,98360.52
2023-04-06T22:18:27.363Z,98356.86
2023-04-06T22:20:59.512Z,98354.98
2023-04-06T22:23:32.570Z,98360.64
2023-04-06T22:26:04.494Z,98356.05
2023-04-06T22:28:39.497Z,98350.97
2023-04-06T22:31:11.531Z,98350.91
2023-04-06T22:33:43.847Z,98350.42
2023-04-06T22:36:15.916Z,98346.64
2023-04-06T22:38:49.446Z,98343.83
2023-04-06T22:41:24.212Z,98340.86
2023-04-06T22:43:56.357Z,98339.84
2023-04-06T22:46:28.762Z,98341.36
2023-04-06T22:49:01.166Z,98335.99
2023-04-06T22:51:33.265Z,98337.80
2023-04-06T22:54:09.030Z,98337.02
2023-04-06T22:56:41.286Z,98332.64
2023-04-06T22:59:13.238Z,98331.17
2023-04-06T23:01:45.413Z,98332.69
2023-04-06T23:04:17.801Z,98332.10
2023-04-06T23:06:50.274Z,98328.38
2023-04-06T23:09:22.808Z,98323.78
2023-04-06T23:11:54.825Z,98323.81
2023-04-06T23:14:26.951Z,98324.34
2023-04-06T23:16:59.205Z,98316.62
2023-04-06T23:19:31.438Z,98315.52
2023-04-06T23:22:03.548Z,98313.64
2023-04-06T23:24:35.601Z,98313.69
2023-04-06T23:27:07.994Z,98312.16
2023-04-06T23:29:40.006Z,98310.35
2023-04-06T23:32:12.415Z,98311.83
2023-04-06T23:34:44.498Z,98306.13
2023-04-06T23:37:16.649Z,98308.76
2023-04-06T23:39:49.439Z,98309.55
2023-04-06T23:42:21.540Z,98305.55
2023-04-06T23:45:01.031Z,98303.90
2023-04-06T23:47:33.162Z,98300.95
2023-04-06T23:50:05.892Z,98295.74
2023-04-06T23:52:37.893Z,98293.50
2023-04-06T23:55:11.291Z,98290.65
2023-04-06T23:57:43.260Z,98292.69
